createdAt,value
2023-03-11T00:01:36.433Z,0.68
2023-03-11T00:04:39.122Z,0.40
2023-03-11T00:07:41.541Z,0.30
2023-03-11T00:10:46.106Z,0.32
2023-03-11T00:13:48.823Z,0.65
2023-03-11T00:16:51.465Z,0.80
2023-03-11T00:19:53.872Z,0.60
2023-03-11T00:22:57.674Z,0.30
2023-03-11T00:26:01.944Z,1.27
2023-03-11T00:29:04.573Z,0.80
2023-03-11T00:32:07.123Z,0.85
2023-03-11T00:35:14.382Z,0.47
2023-03-11T00:38:17.633Z,0.95
2023-03-11T00:41:20.486Z,0.45
2023-03-11T00:44:23.002Z,0.30
2023-03-11T00:47:26.473Z,1.58
2023-03-11T00:50:34.897Z,0.93
2023-03-11T00:53:37.601Z,0.43
2023-03-11T00:56:41.639Z,3.70
2023-03-11T00:59:44.489Z,0.30
2023-03-11T01:02:47.002Z,0.95
2023-03-11T01:05:50.621Z,1.33
2023-03-11T01:08:53.109Z,0.45
2023-03-11T01:11:55.714Z,0.85
2023-03-11T01:14:58.318Z,0.77
2023-03-11T01:18:01.338Z,0.40
2023-03-11T01:21:03.870Z,0.93
2023-03-11T01:24:07.937Z,0.75
2023-03-11T01:27:10.218Z,0.62
2023-03-11T01:30:16.024Z,0.50
2023-03-11T01:33:19.578Z,1.58
2023-03-11T01:36:22.289Z,1.30
2023-03-11T01:39:24.603Z,1.80
2023-03-11T01:42:28.034Z,3.03
2023-03-11T01:45:43.171Z,0.75
2023-03-11T01:48:54.799Z,1.50
2023-03-11T01:52:03.744Z,0.82
2023-03-11T01:55:07.378Z,1.08
2023-03-11T01:58:14.478Z,1.40
2023-03-11T02:01:17.250Z,1.02
2023-03-11T02:04:21.579Z,2.00
2023-03-11T02:07:24.079Z,0.88
2023-03-11T02:10:27.662Z,1.52
2023-03-11T02:13:31.760Z,2.10
2023-03-11T02:16:34.985Z,1.58
2023-03-11T02:20:02.161Z,0.68
2023-03-11T02:23:04.908Z,0.50
2023-03-11T02:26:16.289Z,0.75
2023-03-11T02:29:20.823Z,0.90
2023-03-11T02:32:24.451Z,0.75
2023-03-11T02:35:26.984Z,1.40
2023-03-11T02:38:30.103Z,1.95
2023-03-11T02:41:35.544Z,1.73
2023-03-11T02:44:39.895Z,6.37
2023-03-11T02:50:46.850Z,0.85
2023-03-11T02:53:55.908Z,1.23
2023-03-11T02:56:58.732Z,3.20
2023-03-11T03:00:08.625Z,2.15
2023-03-11T03:03:11.396Z,1.52
2023-03-11T03:06:14.264Z,1.00
2023-03-11T03:09:16.974Z,2.05
2023-03-11T03:12:19.551Z,4.35
2023-03-11T03:15:22.442Z,1.17
2023-03-11T03:18:25.629Z,2.00
2023-03-11T03:21:28.407Z,2.60
2023-03-11T03:24:31.294Z,0.98
2023-03-11T03:27:34.572Z,1.52
2023-03-11T03:30:37.795Z,1.50
2023-03-11T03:33:40.662Z,1.00
2023-03-11T03:36:43.163Z,2.58
2023-03-11T03:39:46.301Z,1.30
2023-03-11T03:42:48.963Z,2.53
2023-03-11T03:46:02.522Z,1.70
2023-03-11T03:49:05.878Z,0.82
2023-03-11T03:52:10.441Z,1.85
2023-03-11T03:55:13.386Z,0.52
2023-03-11T03:58:16.386Z,1.50
2023-03-11T04:01:19.316Z,0.65
2023-03-11T04:04:22.530Z,1.25
2023-03-11T04:07:25.018Z,2.00
2023-03-11T04:10:28.107Z,1.60
2023-03-11T04:13:30.781Z,2.10
2023-03-11T04:16:33.744Z,0.88
2023-03-11T04:19:37.109Z,0.95
2023-03-11T04:22:39.761Z,1.85
2023-03-11T04:25:42.825Z,0.45
2023-03-11T04:28:45.739Z,1.12
2023-03-11T04:31:49.145Z,2.08
2023-03-11T04:34:52.151Z,3.13
2023-03-11T04:37:54.588Z,0.73
2023-03-11T04:41:05.914Z,1.03
2023-03-11T04:44:08.985Z,2.72
2023-03-11T04:47:11.667Z,8.02
2023-03-11T04:50:14.850Z,9.90
2023-03-11T04:53:17.804Z,19.00
2023-03-11T04:56:21.097Z,8.55
2023-03-11T04:59:24.558Z,29.02
2023-03-11T05:02:28.040Z,27.75
2023-03-11T05:05:31.921Z,28.45
2023-03-11T05:08:34.630Z,39.15
2023-03-11T05:11:37.362Z,26.87
2023-03-11T05:14:40.802Z,21.58
2023-03-11T05:20:46.131Z,32.40
2023-03-11T05:23:49.684Z,10.77
2023-03-11T05:26:53.221Z,28.40
2023-03-11T05:29:56.029Z,18.60
2023-03-11T05:32:58.999Z,9.02
2023-03-11T05:36:10.176Z,12.33
2023-03-11T05:39:13.120Z,5.07
2023-03-11T05:42:15.874Z,2.47
2023-03-11T05:45:18.485Z,5.55
2023-03-11T05:48:21.421Z,2.60
2023-03-11T05:51:24.059Z,5.75
2023-03-11T05:54:26.939Z,7.87
2023-03-11T05:57:29.737Z,7.37
2023-03-11T06:00:32.507Z,10.25
2023-03-11T06:03:35.644Z,7.33
2023-03-11T06:06:41.582Z,10.23
2023-03-11T06:09:45.107Z,5.72
2023-03-11T06:12:48.182Z,2.37
2023-03-11T06:15:51.599Z,5.53
2023-03-11T06:18:54.373Z,6.55
2023-03-11T06:21:57.361Z,2.33
2023-03-11T06:24:59.758Z,0.65
2023-03-11T06:28:02.976Z,1.10
2023-03-11T06:31:19.528Z,3.83
2023-03-11T06:34:23.738Z,2.45
2023-03-11T06:37:26.232Z,6.15
2023-03-11T06:40:31.390Z,8.02
2023-03-11T06:43:34.942Z,8.82
2023-03-11T06:49:41.770Z,1.70
2023-03-11T06:52:44.611Z,3.15
2023-03-11T06:55:57.184Z,6.35
2023-03-11T06:58:59.918Z,6.70
2023-03-11T07:02:05.628Z,7.07
2023-03-11T07:05:08.812Z,3.42
2023-03-11T07:08:11.704Z,1.15
2023-03-11T07:11:20.185Z,1.30
2023-03-11T07:14:23.732Z,2.15
2023-03-11T07:17:27.354Z,2.60
2023-03-11T07:20:29.847Z,4.20
2023-03-11T07:23:33.884Z,1.77
2023-03-11T07:26:36.300Z,4.72
2023-03-11T07:29:39.515Z,3.40
2023-03-11T07:32:42.352Z,2.55
2023-03-11T07:35:45.638Z,0.83
2023-03-11T07:38:48.838Z,0.75
2023-03-11T07:41:51.806Z,1.62
2023-03-11T07:44:54.238Z,1.73
2023-03-11T07:47:56.926Z,0.75
2023-03-11T07:51:08.567Z,0.62
2023-03-11T07:54:12.903Z,0.80
2023-03-11T07:57:17.223Z,0.85
2023-03-11T08:00:20.245Z,4.18
2023-03-11T08:03:26.022Z,3.97
2023-03-11T08:06:31.333Z,3.30
2023-03-11T08:09:35.332Z,1.40
2023-03-11T08:12:37.848Z,1.65
2023-03-11T08:15:40.716Z,1.40
2023-03-11T08:18:43.590Z,1.80
2023-03-11T08:21:46.254Z,3.73
2023-03-11T08:24:52.990Z,1.40
2023-03-11T08:27:56.177Z,1.02
2023-03-11T08:30:58.657Z,1.70
2023-03-11T08:34:04.794Z,1.73
2023-03-11T08:37:07.335Z,1.10
2023-03-11T08:40:10.892Z,3.80
2023-03-11T08:43:14.199Z,2.17
2023-03-11T08:46:38.118Z,1.02
2023-03-11T08:49:40.845Z,2.15
2023-03-11T08:52:43.472Z,2.63
2023-03-11T08:55:45.785Z,1.05
2023-03-11T08:58:49.075Z,5.95
2023-03-11T09:01:51.395Z,1.73
2023-03-11T09:04:54.074Z,1.12
2023-03-11T09:07:57.020Z,5.83
2023-03-11T09:10:59.795Z,0.85
2023-03-11T09:14:02.083Z,1.90
2023-03-11T09:17:04.733Z,1.80
2023-03-11T09:20:07.670Z,1.90
2023-03-11T09:23:11.959Z,1.70
2023-03-11T09:26:14.781Z,1.45
2023-03-11T09:29:17.444Z,5.00
2023-03-11T09:32:20.033Z,2.40
2023-03-11T09:35:23.399Z,4.70
2023-03-11T09:38:25.785Z,1.73
2023-03-11T09:41:58.513Z,0.45
2023-03-11T09:45:10.198Z,4.97
2023-03-11T09:48:24.674Z,0.93
2023-03-11T09:51:35.940Z,2.17
2023-03-11T09:54:46.853Z,0.80
2023-03-11T09:57:51.650Z,1.05
2023-03-11T10:00:55.193Z,2.97
2023-03-11T10:04:04.379Z,3.37
2023-03-11T10:07:15.496Z,8.30
2023-03-11T10:10:18.399Z,2.58
2023-03-11T10:13:43.517Z,4.93
2023-03-11T10:17:06.200Z,11.32
2023-03-11T10:20:19.949Z,4.43
2023-03-11T10:23:26.704Z,12.93
2023-03-11T10:26:44.776Z,6.12
2023-03-11T10:30:12.554Z,10.02
2023-03-11T10:33:36.965Z,2.42
2023-03-11T10:39:47.191Z,5.15
2023-03-11T10:42:52.337Z,6.00
2023-03-11T10:45:54.878Z,0.90
2023-03-11T10:48:57.670Z,5.37
2023-03-11T10:52:04.147Z,9.73
2023-03-11T10:55:07.177Z,4.60
2023-03-11T10:58:16.569Z,4.20
2023-03-11T11:01:21.684Z,8.50
2023-03-11T11:04:40.262Z,3.20
2023-03-11T11:07:44.417Z,2.97
2023-03-11T11:10:52.218Z,1.37
2023-03-11T11:14:00.826Z,5.10
2023-03-11T11:17:03.211Z,8.02
2023-03-11T11:20:17.864Z,5.18
2023-03-11T11:23:37.390Z,3.05
2023-03-11T11:26:40.124Z,10.57
2023-03-11T11:29:42.870Z,0.85
2023-03-11T11:32:45.582Z,8.37
2023-03-11T11:35:55.097Z,0.98
2023-03-11T11:38:59.683Z,3.58
2023-03-11T11:42:03.135Z,2.75
2023-03-11T11:45:11.049Z,1.77
2023-03-11T11:48:19.646Z,1.10
2023-03-11T11:51:30.085Z,1.40
2023-03-11T11:54:38.835Z,2.03
2023-03-11T11:57:41.474Z,1.45
2023-03-11T12:00:55.863Z,2.85
2023-03-11T12:04:26.293Z,2.55
2023-03-11T12:07:54.630Z,4.62
2023-03-11T12:11:01.502Z,1.98
2023-03-11T12:14:12.823Z,2.80
2023-03-11T12:17:19.307Z,2.55
2023-03-11T12:20:31.048Z,3.90
2023-03-11T12:24:02.186Z,7.80
2023-03-11T12:27:16.514Z,4.00
2023-03-11T12:30:27.211Z,8.30
2023-03-11T12:33:45.001Z,4.28
2023-03-11T12:36:48.560Z,2.78
2023-03-11T12:39:50.990Z,17.80
2023-03-11T12:42:53.571Z,6.60
2023-03-11T12:45:59.476Z,5.15
2023-03-11T12:49:08.020Z,7.32
2023-03-11T12:52:13.600Z,3.70
2023-03-11T12:55:19.055Z,2.95
2023-03-11T12:58:48.329Z,1.50
2023-03-11T13:02:04.080Z,6.97
2023-03-11T13:05:21.450Z,2.15
2023-03-11T13:08:27.210Z,3.65
2023-03-11T13:11:32.398Z,3.12
2023-03-11T13:14:35.453Z,2.25
2023-03-11T13:17:37.888Z,2.45
2023-03-11T13:20:43.467Z,3.37
2023-03-11T13:23:45.975Z,3.65
2023-03-11T13:27:06.904Z,2.12
2023-03-11T13:30:20.756Z,8.70
2023-03-11T13:33:34.273Z,1.83
2023-03-11T13:36:57.065Z,5.28
2023-03-11T13:40:14.338Z,5.35
2023-03-11T13:43:16.615Z,4.15
2023-03-11T13:46:38.415Z,8.40
2023-03-11T13:49:52.040Z,5.57
2023-03-11T13:52:56.933Z,6.12
2023-03-11T13:55:59.338Z,4.40
2023-03-11T13:59:27.009Z,3.75
2023-03-11T14:02:29.422Z,9.80
2023-03-11T14:05:43.804Z,5.55
2023-03-11T14:08:55.036Z,3.85
2023-03-11T14:12:04.900Z,5.30
2023-03-11T14:15:17.149Z,12.98
2023-03-11T14:18:44.159Z,28.77
2023-03-11T14:21:49.785Z,16.50
2023-03-11T14:24:52.664Z,6.97
2023-03-11T14:28:00.991Z,4.93
2023-03-11T14:31:04.658Z,4.30
2023-03-11T14:34:10.055Z,6.50
2023-03-11T14:37:38.856Z,7.15
2023-03-11T14:40:42.159Z,8.93
2023-03-11T14:43:47.938Z,5.03
2023-03-11T14:46:56.957Z,6.05
2023-03-11T14:50:25.092Z,2.12
2023-03-11T14:53:46.968Z,5.32
2023-03-11T14:56:56.533Z,4.87
2023-03-11T14:59:59.294Z,7.15
2023-03-11T15:03:20.734Z,5.00
2023-03-11T15:06:26.948Z,4.90
2023-03-11T15:09:30.095Z,2.42
2023-03-11T15:12:41.318Z,5.05
2023-03-11T15:15:46.058Z,2.50
2023-03-11T15:18:48.706Z,2.53
2023-03-11T15:21:56.453Z,2.67
2023-03-11T15:25:01.297Z,12.93
2023-03-11T15:28:26.706Z,2.80
2023-03-11T15:31:32.663Z,2.50
2023-03-11T15:34:36.304Z,2.08
2023-03-11T15:37:40.859Z,7.55
2023-03-11T15:40:52.586Z,1.77
2023-03-11T15:43:55.155Z,8.20
2023-03-11T15:47:00.461Z,4.57
2023-03-11T15:50:25.180Z,2.85
2023-03-11T15:53:30.422Z,8.40
2023-03-11T15:56:33.618Z,5.15
2023-03-11T15:59:37.446Z,5.57
2023-03-11T16:02:39.835Z,5.40
2023-03-11T16:05:42.781Z,4.47
2023-03-11T16:08:45.110Z,3.33
2023-03-11T16:11:47.842Z,2.67
2023-03-11T16:14:50.710Z,4.35
2023-03-11T16:17:54.989Z,2.30
2023-03-11T16:24:00.541Z,3.67
2023-03-11T16:27:03.214Z,7.33
2023-03-11T16:30:06.609Z,2.05
2023-03-11T16:33:09.092Z,1.87
2023-03-11T16:36:11.738Z,3.08
2023-03-11T16:39:14.662Z,2.65
2023-03-11T16:42:23.600Z,2.87
2023-03-11T16:45:26.204Z,2.90
2023-03-11T16:48:28.910Z,2.80
2023-03-11T16:51:31.613Z,4.22
2023-03-11T16:54:35.153Z,3.22
2023-03-11T16:57:39.389Z,3.80
2023-03-11T17:00:42.561Z,8.25
2023-03-11T17:03:48.680Z,2.60
2023-03-11T17:06:51.365Z,4.70
2023-03-11T17:09:53.704Z,6.45
2023-03-11T17:12:56.676Z,9.50
2023-03-11T17:16:05.113Z,6.12
2023-03-11T17:19:07.818Z,3.75
2023-03-11T17:22:11.021Z,3.97
2023-03-11T17:25:13.641Z,2.60
2023-03-11T17:28:16.011Z,6.87
2023-03-11T17:31:18.913Z,2.65
2023-03-11T17:34:21.401Z,4.60
2023-03-11T17:37:24.329Z,3.35
2023-03-11T17:40:29.322Z,3.20
2023-03-11T17:43:32.055Z,2.20
2023-03-11T17:46:36.357Z,3.60
2023-03-11T17:49:39.090Z,2.72
2023-03-11T17:52:41.403Z,2.92
2023-03-11T17:55:44.038Z,7.70
2023-03-11T17:58:47.441Z,5.00
2023-03-11T18:01:50.105Z,3.10
2023-03-11T18:04:53.865Z,4.65
2023-03-11T18:07:56.336Z,3.95
2023-03-11T18:11:02.082Z,3.10
2023-03-11T18:14:04.446Z,6.53
2023-03-11T18:17:07.185Z,3.75
2023-03-11T18:20:10.083Z,3.40
2023-03-11T18:23:12.945Z,3.20
2023-03-11T18:26:19.109Z,2.80
2023-03-11T18:29:24.041Z,2.50
2023-03-11T18:32:26.689Z,4.20
2023-03-11T18:35:29.607Z,3.75
2023-03-11T18:38:31.940Z,2.75
2023-03-11T18:41:35.556Z,3.97
2023-03-11T18:44:37.900Z,2.75
2023-03-11T18:47:40.821Z,2.80
2023-03-11T18:50:43.198Z,4.37
2023-03-11T18:53:45.886Z,3.30
2023-03-11T18:56:48.649Z,3.17
2023-03-11T18:59:52.094Z,2.97
2023-03-11T19:02:54.541Z,3.25
2023-03-11T19:05:57.158Z,2.70
2023-03-11T19:08:59.642Z,5.05
2023-03-11T19:12:02.305Z,4.50
2023-03-11T19:15:05.361Z,5.93
2023-03-11T19:18:08.908Z,4.37
2023-03-11T19:21:12.869Z,3.47
2023-03-11T19:24:15.624Z,5.37
2023-03-11T19:27:17.935Z,3.55
2023-03-11T19:30:22.212Z,3.83
2023-03-11T19:33:25.694Z,5.18
2023-03-11T19:36:28.576Z,5.37
2023-03-11T19:39:31.038Z,4.03
2023-03-11T19:42:34.565Z,4.60
2023-03-11T19:45:37.041Z,6.53
2023-03-11T19:48:39.775Z,5.10
2023-03-11T19:51:50.056Z,3.22
2023-03-11T19:54:53.644Z,4.47
2023-03-11T19:57:56.089Z,5.43
2023-03-11T20:00:59.854Z,3.92
2023-03-11T20:04:02.529Z,3.80
2023-03-11T20:07:05.739Z,5.50
2023-03-11T20:10:09.221Z,3.87
2023-03-11T20:13:12.777Z,5.47
2023-03-11T20:16:19.201Z,3.62
2023-03-11T20:19:21.721Z,4.55
2023-03-11T20:22:24.512Z,4.65
2023-03-11T20:25:29.645Z,5.03
2023-03-11T20:28:32.502Z,3.92
2023-03-11T20:31:36.458Z,4.10
2023-03-11T20:34:39.327Z,4.40
2023-03-11T20:37:42.813Z,4.90
2023-03-11T20:40:45.477Z,4.55
2023-03-11T20:43:48.035Z,5.72
2023-03-11T20:46:51.182Z,12.48
2023-03-11T20:49:53.990Z,4.33
2023-03-11T20:52:57.026Z,4.28
2023-03-11T20:56:05.323Z,4.22
2023-03-11T20:59:08.194Z,4.07
2023-03-11T21:02:11.884Z,5.32
2023-03-11T21:08:17.358Z,4.57
2023-03-11T21:11:20.186Z,3.63
2023-03-11T21:14:22.622Z,3.87
2023-03-11T21:17:25.472Z,2.62
2023-03-11T21:20:27.954Z,3.78
2023-03-11T21:23:30.900Z,3.60
2023-03-11T21:26:33.514Z,5.15
2023-03-11T21:29:37.386Z,5.30
2023-03-11T21:32:39.815Z,5.28
2023-03-11T21:35:42.914Z,4.15
2023-03-11T21:38:47.330Z,3.78
2023-03-11T21:41:50.727Z,3.90
2023-03-11T21:44:53.128Z,3.25
2023-03-11T21:47:55.859Z,4.70
2023-03-11T21:50:58.727Z,4.45
2023-03-11T21:54:03.598Z,3.93
2023-03-11T21:57:06.176Z,4.03
2023-03-11T22:00:19.219Z,5.70
2023-03-11T22:03:23.644Z,4.07
2023-03-11T22:06:26.634Z,3.40
2023-03-11T22:09:29.344Z,3.83
2023-03-11T22:12:31.697Z,3.25
2023-03-11T22:15:34.391Z,4.15
2023-03-11T22:18:36.792Z,8.98
2023-03-11T22:21:39.447Z,4.28
2023-03-11T22:24:41.815Z,4.97
2023-03-11T22:27:44.412Z,3.70
2023-03-11T22:30:46.764Z,3.03
2023-03-11T22:33:49.535Z,3.75
2023-03-11T22:36:51.930Z,4.78
2023-03-11T22:39:54.614Z,3.62
2023-03-11T22:42:56.945Z,3.47
2023-03-11T22:46:02.325Z,4.55
2023-03-11T22:49:04.841Z,3.42
2023-03-11T22:52:07.617Z,4.78
2023-03-11T22:55:10.366Z,3.67
2023-03-11T22:58:13.098Z,3.75
2023-03-11T23:01:16.549Z,3.70
2023-03-11T23:04:19.190Z,3.00
2023-03-11T23:07:21.505Z,4.53
2023-03-11T23:10:24.167Z,3.15
2023-03-11T23:13:26.923Z,3.85
2023-03-11T23:16:29.870Z,6.07
2023-03-11T23:19:32.170Z,5.18
2023-03-11T23:22:36.651Z,4.03
2023-03-11T23:25:40.976Z,5.37
2023-03-11T23:28:44.354Z,3.65
2023-03-11T23:31:46.683Z,4.33
2023-03-11T23:34:49.250Z,3.47
2023-03-11T23:37:51.964Z,3.58
2023-03-11T23:40:54.626Z,5.07
2023-03-11T23:43:56.917Z,5.35
2023-03-11T23:46:59.687Z,4.10
2023-03-11T23:50:02.079Z,3.95
2023-03-11T23:53:04.751Z,5.15
2023-03-11T23:56:12.802Z,5.18
2023-03-11T23:59:15.403Z,4.78
